sensor_id;sensor_type;location;lat;lon;timestamp;pressure;altitude;pressure_sealevel;temperature;humidity
67818;BME280;54614;47.576;7.524;2023-02-21T00:00:55;99065.47;;;24.52;34.76
67818;BME280;54614;47.576;7.524;2023-02-21T00:03:40;99064.44;;;24.53;34.69
67818;BME280;54614;47.576;7.524;2023-02-21T00:06:24;99058.44;;;24.51;34.71
67818;BME280;54614;47.576;7.524;2023-02-21T00:09:09;99059.47;;;24.50;34.92
67818;BME280;54614;47.576;7.524;2023-02-21T00:11:53;99057.59;;;24.51;34.75
67818;BME280;54614;47.576;7.524;2023-02-21T00:14:37;99064.84;;;24.50;34.46
67818;BME280;54614;47.576;7.524;2023-02-21T00:17:22;99054.09;;;24.50;34.60
67818;BME280;54614;47.576;7.524;2023-02-21T00:20:07;99054.91;;;24.51;34.48
67818;BME280;54614;47.576;7.524;2023-02-21T00:22:52;99047.06;;;24.49;34.83
67818;BME280;54614;47.576;7.524;2023-02-21T00:25:36;99047.25;;;24.48;34.63
67818;BME280;54614;47.576;7.524;2023-02-21T00:28:21;99051.59;;;24.49;34.66
67818;BME280;54614;47.576;7.524;2023-02-21T00:31:06;99050.97;;;24.47;34.70
67818;BME280;54614;47.576;7.524;2023-02-21T00:33:50;99042.91;;;24.47;34.37
67818;BME280;54614;47.576;7.524;2023-02-21T00:36:34;99049.31;;;24.46;34.51
67818;BME280;54614;47.576;7.524;2023-02-21T00:39:19;99050.97;;;24.47;34.41
67818;BME280;54614;47.576;7.524;2023-02-21T00:42:03;99036.06;;;24.44;34.54
67818;BME280;54614;47.576;7.524;2023-02-21T00:44:48;99046.00;;;24.43;34.54
67818;BME280;54614;47.576;7.524;2023-02-21T00:47:32;99047.84;;;24.43;34.67
67818;BME280;54614;47.576;7.524;2023-02-21T00:50:16;99043.31;;;24.43;34.45
67818;BME280;54614;47.576;7.524;2023-02-21T00:53:01;99048.69;;;24.43;34.66
67818;BME280;54614;47.576;7.524;2023-02-21T00:55:44;99046.00;;;24.43;34.53
67818;BME280;54614;47.576;7.524;2023-02-21T00:58:29;99049.91;;;24.41;34.71
67818;BME280;54614;47.576;7.524;2023-02-21T01:01:13;99057.97;;;24.41;34.37
67818;BME280;54614;47.576;7.524;2023-02-21T01:03:58;99053.63;;;24.40;34.29
67818;BME280;54614;47.576;7.524;2023-02-21T01:06:43;99059.84;;;24.40;34.60
67818;BME280;54614;47.576;7.524;2023-02-21T01:09:27;99046.59;;;24.39;34.28
67818;BME280;54614;47.576;7.524;2023-02-21T01:12:11;99048.25;;;24.40;34.33
67818;BME280;54614;47.576;7.524;2023-02-21T01:14:56;99047.63;;;24.38;34.34
67818;BME280;54614;47.576;7.524;2023-02-21T01:17:40;99051.13;;;24.38;34.33
67818;BME280;54614;47.576;7.524;2023-02-21T01:20:24;99046.78;;;24.37;34.41
67818;BME280;54614;47.576;7.524;2023-02-21T01:23:08;99048.66;;;24.37;34.24
67818;BME280;54614;47.576;7.524;2023-02-21T01:25:53;99037.91;;;24.37;34.20
67818;BME280;54614;47.576;7.524;2023-02-21T01:28:37;99041.63;;;24.36;34.38
67818;BME280;54614;47.576;7.524;2023-02-21T01:31:22;99037.91;;;24.37;34.42
67818;BME280;54614;47.576;7.524;2023-02-21T01:34:06;99034.56;;;24.35;34.32
67818;BME280;54614;47.576;7.524;2023-02-21T01:36:51;99026.50;;;24.35;34.29
67818;BME280;54614;47.576;7.524;2023-02-21T01:39:35;99029.19;;;24.35;34.53
67818;BME280;54614;47.576;7.524;2023-02-21T01:42:20;99033.75;;;24.34;34.54
67818;BME280;54614;47.576;7.524;2023-02-21T01:46:03;99025.06;;;24.32;34.61
67818;BME280;54614;47.576;7.524;2023-02-21T01:48:50;99024.22;;;24.32;34.50
67818;BME280;54614;47.576;7.524;2023-02-21T01:51:40;99014.50;;;24.31;34.31
67818;BME280;54614;47.576;7.524;2023-02-21T01:54:31;99015.31;;;24.31;34.51
67818;BME280;54614;47.576;7.524;2023-02-21T01:57:18;99018.00;;;24.31;34.55
67818;BME280;54614;47.576;7.524;2023-02-21T02:00:07;99016.56;;;24.29;34.35
67818;BME280;54614;47.576;7.524;2023-02-21T02:02:59;99013.88;;;24.29;34.16
67818;BME280;54614;47.576;7.524;2023-02-21T02:05:49;99020.06;;;24.29;34.64
67818;BME280;54614;47.576;7.524;2023-02-21T02:08:34;99013.66;;;24.30;34.30
67818;BME280;54614;47.576;7.524;2023-02-21T02:11:51;99015.53;;;24.30;34.39
67818;BME280;54614;47.576;7.524;2023-02-21T02:24:04;98992.72;;;24.26;34.51
67818;BME280;54614;47.576;7.524;2023-02-21T02:36:17;98987.56;;;24.24;34.41
67818;BME280;54614;47.576;7.524;2023-02-21T02:42:29;98986.91;;;24.22;34.41
67818;BME280;54614;47.576;7.524;2023-02-21T02:45:30;98978.84;;;24.22;34.10
67818;BME280;54614;47.576;7.524;2023-02-21T02:48:09;98973.69;;;24.21;34.47
67818;BME280;54614;47.576;7.524;2023-02-21T02:50:40;98978.03;;;24.22;34.47
67818;BME280;54614;47.576;7.524;2023-02-21T02:53:06;98970.78;;;24.22;33.94
67818;BME280;54614;47.576;7.524;2023-02-21T02:55:50;98964.59;;;24.22;34.18
67818;BME280;54614;47.576;7.524;2023-02-21T02:58:20;98964.78;;;24.20;34.18
67818;BME280;54614;47.576;7.524;2023-02-21T03:07:09;98957.94;;;24.18;34.36
67818;BME280;54614;47.576;7.524;2023-02-21T03:21:00;98964.56;;;24.15;34.50
67818;BME280;54614;47.576;7.524;2023-02-21T03:23:31;98962.69;;;24.16;34.25
67818;BME280;54614;47.576;7.524;2023-02-21T03:26:03;98966.22;;;24.16;34.50
67818;BME280;54614;47.576;7.524;2023-02-21T03:28:33;98961.66;;;24.17;34.25
67818;BME280;54614;47.576;7.524;2023-02-21T03:31:03;98976.13;;;24.16;34.11
67818;BME280;54614;47.576;7.524;2023-02-21T03:33:31;98977.78;;;24.17;34.10
67818;BME280;54614;47.576;7.524;2023-02-21T03:35:59;98969.94;;;24.15;34.32
67818;BME280;54614;47.576;7.524;2023-02-21T03:38:30;98973.66;;;24.14;34.09
67818;BME280;54614;47.576;7.524;2023-02-21T03:40:57;98966.63;;;24.13;34.23
67818;BME280;54614;47.576;7.524;2023-02-21T03:43:23;98968.28;;;24.14;34.03
67818;BME280;54614;47.576;7.524;2023-02-21T03:45:49;98972.00;;;24.13;34.35
67818;BME280;54614;47.576;7.524;2023-02-21T03:48:14;98974.69;;;24.13;34.00
67818;BME280;54614;47.576;7.524;2023-02-21T03:50:40;98971.34;;;24.11;33.94
67818;BME280;54614;47.576;7.524;2023-02-21T03:53:06;98974.88;;;24.11;33.82
67818;BME280;54614;47.576;7.524;2023-02-21T03:55:32;98968.88;;;24.09;34.17
67818;BME280;54614;47.576;7.524;2023-02-21T03:57:58;98973.41;;;24.09;33.86
67818;BME280;54614;47.576;7.524;2023-02-21T04:00:24;98974.44;;;24.08;33.95
67818;BME280;54614;47.576;7.524;2023-02-21T04:02:49;98970.72;;;24.09;34.04
67818;BME280;54614;47.576;7.524;2023-02-21T04:05:15;98970.72;;;24.09;33.79
67818;BME280;54614;47.576;7.524;2023-02-21T04:07:41;98975.28;;;24.08;33.97
67818;BME280;54614;47.576;7.524;2023-02-21T04:10:08;98967.41;;;24.07;33.90
67818;BME280;54614;47.576;7.524;2023-02-21T04:12:33;98971.97;;;24.06;34.04
67818;BME280;54614;47.576;7.524;2023-02-21T04:14:59;98973.81;;;24.06;34.05
67818;BME280;54614;47.576;7.524;2023-02-21T04:17:25;98981.03;;;24.05;33.88
67818;BME280;54614;47.576;7.524;2023-02-21T04:19:51;98980.22;;;24.05;33.69
67818;BME280;54614;47.576;7.524;2023-02-21T04:22:17;98980.41;;;24.03;33.79
67818;BME280;54614;47.576;7.524;2023-02-21T04:24:43;98977.72;;;24.03;34.02
67818;BME280;54614;47.576;7.524;2023-02-21T04:27:09;98975.88;;;24.04;33.91
67818;BME280;54614;47.576;7.524;2023-02-21T04:29:35;98976.06;;;24.02;33.75
67818;BME280;54614;47.576;7.524;2023-02-21T04:32:00;98985.56;;;23.98;34.11
67818;BME280;54614;47.576;7.524;2023-02-21T04:34:27;98978.13;;;24.00;33.76
67818;BME280;54614;47.576;7.524;2023-02-21T04:36:53;98976.25;;;24.01;33.84
67818;BME280;54614;47.576;7.524;2023-02-21T04:39:19;98971.72;;;24.01;33.80
67818;BME280;54614;47.576;7.524;2023-02-21T04:41:45;98973.59;;;24.01;33.91
67818;BME280;54614;47.576;7.524;2023-02-21T04:44:12;98974.41;;;24.01;33.74
67818;BME280;54614;47.576;7.524;2023-02-21T04:46:38;98976.25;;;24.01;33.84
67818;BME280;54614;47.576;7.524;2023-02-21T04:49:04;98977.94;;;24.02;33.72
67818;BME280;54614;47.576;7.524;2023-02-21T04:51:30;98978.13;;;24.00;34.05
67818;BME280;54614;47.576;7.524;2023-02-21T04:53:58;98980.81;;;24.00;33.99
67818;BME280;54614;47.576;7.524;2023-02-21T04:56:25;98975.63;;;23.99;33.94
67818;BME280;54614;47.576;7.524;2023-02-21T04:58:52;98976.47;;;23.99;34.04
67818;BME280;54614;47.576;7.524;2023-02-21T05:01:20;98970.25;;;23.99;33.92
67818;BME280;54614;47.576;7.524;2023-02-21T05:03:47;98971.09;;;23.99;34.20
67818;BME280;54614;47.576;7.524;2023-02-21T05:06:22;98964.88;;;23.99;33.96
67818;BME280;54614;47.576;7.524;2023-02-21T05:08:49;98968.59;;;23.98;34.00
67818;BME280;54614;47.576;7.524;2023-02-21T05:11:17;98976.66;;;23.98;34.26
67818;BME280;54614;47.576;7.524;2023-02-21T05:13:44;98971.28;;;23.98;34.16
67818;BME280;54614;47.576;7.524;2023-02-21T05:16:10;98972.31;;;23.97;33.75
67818;BME280;54614;47.576;7.524;2023-02-21T05:18:36;98963.22;;;23.98;33.98
67818;BME280;54614;47.576;7.524;2023-02-21T05:21:05;98966.13;;;23.96;33.89
67818;BME280;54614;47.576;7.524;2023-02-21T05:23:31;98965.28;;;23.96;33.96
67818;BME280;54614;47.576;7.524;2023-02-21T05:26:08;98969.63;;;23.97;34.02
67818;BME280;54614;47.576;7.524;2023-02-21T05:28:35;98967.97;;;23.96;33.74
67818;BME280;54614;47.576;7.524;2023-02-21T05:31:01;98970.66;;;23.96;33.57
67818;BME280;54614;47.576;7.524;2023-02-21T05:33:27;98965.28;;;23.96;33.40
67818;BME280;54614;47.576;7.524;2023-02-21T05:35:54;98968.16;;;23.94;33.02
67818;BME280;54614;47.576;7.524;2023-02-21T05:38:22;98958.44;;;23.93;33.42
67818;BME280;54614;47.576;7.524;2023-02-21T05:40:48;98960.31;;;23.93;33.08
67818;BME280;54614;47.576;7.524;2023-02-21T05:43:14;98965.69;;;23.93;33.09
67818;BME280;54614;47.576;7.524;2023-02-21T05:45:41;98954.94;;;23.93;32.90
67818;BME280;54614;47.576;7.524;2023-02-21T05:48:07;98963.19;;;23.91;33.03
67818;BME280;54614;47.576;7.524;2023-02-21T05:50:33;98956.16;;;23.90;33.21
67818;BME280;54614;47.576;7.524;2023-02-21T05:52:59;98958.84;;;23.90;33.18
67818;BME280;54614;47.576;7.524;2023-02-21T05:55:25;98965.06;;;23.91;33.01
67818;BME280;54614;47.576;7.524;2023-02-21T05:57:52;98965.88;;;23.91;32.92
67818;BME280;54614;47.576;7.524;2023-02-21T06:00:22;98966.91;;;23.90;33.05
67818;BME280;54614;47.576;7.524;2023-02-21T06:02:51;98959.88;;;23.89;33.06
67818;BME280;54614;47.576;7.524;2023-02-21T06:05:19;98966.06;;;23.90;33.48
67818;BME280;54614;47.576;7.524;2023-02-21T06:07:45;98972.28;;;23.90;33.55
67818;BME280;54614;47.576;7.524;2023-02-21T06:10:12;98963.59;;;23.88;33.11
67818;BME280;54614;47.576;7.524;2023-02-21T06:12:38;98966.06;;;23.90;33.24
67818;BME280;54614;47.576;7.524;2023-02-21T06:15:04;98967.09;;;23.89;33.53
67818;BME280;54614;47.576;7.524;2023-02-21T06:17:41;98959.88;;;23.89;33.65
67818;BME280;54614;47.576;7.524;2023-02-21T06:20:12;98960.91;;;23.88;33.54
67818;BME280;54614;47.576;7.524;2023-02-21T06:22:39;98964.41;;;23.89;33.47
67818;BME280;54614;47.576;7.524;2023-02-21T06:25:06;98959.88;;;23.89;33.83
67818;BME280;54614;47.576;7.524;2023-02-21T06:27:32;98959.84;;;23.83;33.78
67818;BME280;54614;47.576;7.524;2023-02-21T06:29:57;98962.75;;;23.88;33.55
67818;BME280;54614;47.576;7.524;2023-02-21T06:32:23;98964.81;;;23.86;32.98
67818;BME280;54614;47.576;7.524;2023-02-21T06:34:49;98963.97;;;23.85;33.26
67818;BME280;54614;47.576;7.524;2023-02-21T06:37:17;98968.13;;;23.88;33.30
67818;BME280;54614;47.576;7.524;2023-02-21T06:39:44;98968.13;;;23.88;33.27
67818;BME280;54614;47.576;7.524;2023-02-21T06:42:14;98972.69;;;23.87;32.89
67818;BME280;54614;47.576;7.524;2023-02-21T06:44:43;98966.47;;;23.87;32.95
67818;BME280;54614;47.576;7.524;2023-02-21T06:47:09;98968.13;;;23.88;33.21
67818;BME280;54614;47.576;7.524;2023-02-21T06:49:35;98970.00;;;23.87;33.19
67818;BME280;54614;47.576;7.524;2023-02-21T06:52:01;98975.56;;;23.86;32.89
67818;BME280;54614;47.576;7.524;2023-02-21T06:54:27;98988.78;;;23.87;32.91
67818;BME280;54614;47.576;7.524;2023-02-21T06:56:57;98990.84;;;23.85;32.97
67818;BME280;54614;47.576;7.524;2023-02-21T06:59:25;98993.72;;;23.84;37.43
67818;BME280;54614;47.576;7.524;2023-02-21T07:01:51;98992.50;;;23.86;35.76
67818;BME280;54614;47.576;7.524;2023-02-21T07:04:16;98993.56;;;23.92;35.74
67818;BME280;54614;47.576;7.524;2023-02-21T07:06:42;98995.63;;;23.90;34.27
67818;BME280;54614;47.576;7.524;2023-02-21T07:09:08;98999.97;;;23.91;33.79
67818;BME280;54614;47.576;7.524;2023-02-21T07:11:34;99002.84;;;23.89;33.20
67818;BME280;54614;47.576;7.524;2023-02-21T07:14:00;99007.78;;;23.86;33.61
67818;BME280;54614;47.576;7.524;2023-02-21T07:16:27;99002.22;;;23.87;33.28
67818;BME280;54614;47.576;7.524;2023-02-21T07:18:53;99003.06;;;23.88;34.05
67818;BME280;54614;47.576;7.524;2023-02-21T07:21:20;99001.19;;;23.88;33.55
67818;BME280;54614;47.576;7.524;2023-02-21T07:23:47;99005.53;;;23.89;33.27
67818;BME280;54614;47.576;7.524;2023-02-21T07:26:14;99008.47;;;23.94;33.30
67818;BME280;54614;47.576;7.524;2023-02-21T07:28:41;99000.59;;;23.93;33.56
67818;BME280;54614;47.576;7.524;2023-02-21T07:31:07;99001.25;;;23.95;33.55
67818;BME280;54614;47.576;7.524;2023-02-21T07:33:35;98993.81;;;23.97;33.74
67818;BME280;54614;47.576;7.524;2023-02-21T07:36:01;98995.28;;;23.99;33.70
67818;BME280;54614;47.576;7.524;2023-02-21T07:38:29;98998.78;;;24.00;33.21
67818;BME280;54614;47.576;7.524;2023-02-21T07:40:59;99001.28;;;24.01;33.28
67818;BME280;54614;47.576;7.524;2023-02-21T07:43:26;98997.56;;;24.02;33.52
67818;BME280;54614;47.576;7.524;2023-02-21T07:45:53;99007.91;;;24.05;33.29
67818;BME280;54614;47.576;7.524;2023-02-21T07:48:19;99007.72;;;24.07;33.50
67818;BME280;54614;47.576;7.524;2023-02-21T07:50:46;99010.00;;;24.10;33.23
67818;BME280;54614;47.576;7.524;2023-02-21T07:53:13;98997.59;;;24.09;33.37
67818;BME280;54614;47.576;7.524;2023-02-21T07:55:39;98995.94;;;24.08;33.21
67818;BME280;54614;47.576;7.524;2023-02-21T07:58:05;99000.09;;;24.10;33.01
67818;BME280;54614;47.576;7.524;2023-02-21T08:00:31;98997.41;;;24.10;32.89
67818;BME280;54614;47.576;7.524;2023-02-21T08:02:58;98994.50;;;24.12;33.24
67818;BME280;54614;47.576;7.524;2023-02-21T08:05:24;98995.97;;;24.15;33.46
67818;BME280;54614;47.576;7.524;2023-02-21T08:07:51;98993.09;;;24.16;33.25
67818;BME280;54614;47.576;7.524;2023-02-21T08:10:23;98996.41;;;24.18;33.59
67818;BME280;54614;47.576;7.524;2023-02-21T08:12:50;98994.34;;;24.20;33.39
67818;BME280;54614;47.576;7.524;2023-02-21T08:15:16;98990.44;;;24.23;33.21
67818;BME280;54614;47.576;7.524;2023-02-21T08:17:43;98991.72;;;24.27;33.21
67818;BME280;54614;47.576;7.524;2023-02-21T08:20:09;98994.00;;;24.30;33.15
67818;BME280;54614;47.576;7.524;2023-02-21T08:22:37;98992.78;;;24.32;33.50
67818;BME280;54614;47.576;7.524;2023-02-21T08:25:03;98989.28;;;24.32;33.30
67818;BME280;54614;47.576;7.524;2023-02-21T08:27:29;98987.22;;;24.34;33.10
67818;BME280;54614;47.576;7.524;2023-02-21T08:29:55;98984.53;;;24.34;33.08
67818;BME280;54614;47.576;7.524;2023-02-21T08:32:21;98989.69;;;24.35;33.25
67818;BME280;54614;47.576;7.524;2023-02-21T08:34:48;98985.97;;;24.36;33.37
67818;BME280;54614;47.576;7.524;2023-02-21T08:37:15;98982.88;;;24.39;33.12
67818;BME280;54614;47.576;7.524;2023-02-21T08:39:50;98980.00;;;24.41;32.92
67818;BME280;54614;47.576;7.524;2023-02-21T08:42:18;98987.47;;;24.46;33.33
67818;BME280;54614;47.576;7.524;2023-02-21T08:44:45;98977.53;;;24.46;32.80
67818;BME280;54614;47.576;7.524;2023-02-21T08:47:13;98979.19;;;24.47;32.88
67818;BME280;54614;47.576;7.524;2023-02-21T08:49:42;98973.63;;;24.49;33.35
67818;BME280;54614;47.576;7.524;2023-02-21T08:52:09;98975.06;;;24.51;32.75
67818;BME280;54614;47.576;7.524;2023-02-21T08:54:36;98981.72;;;24.55;32.96
67818;BME280;54614;47.576;7.524;2023-02-21T08:57:02;98971.78;;;24.56;33.18
67818;BME280;54614;47.576;7.524;2023-02-21T08:59:28;98972.59;;;24.56;32.93
67818;BME280;54614;47.576;7.524;2023-02-21T09:02:01;98967.03;;;24.58;32.90
67818;BME280;54614;47.576;7.524;2023-02-21T09:04:26;98970.34;;;24.60;32.84
67818;BME280;54614;47.576;7.524;2023-02-21T09:06:54;98957.72;;;24.60;32.87
67818;BME280;54614;47.576;7.524;2023-02-21T09:09:20;98957.53;;;24.62;32.62
67818;BME280;54614;47.576;7.524;2023-02-21T09:11:46;98965.59;;;24.62;33.06
67818;BME280;54614;47.576;7.524;2023-02-21T09:14:15;98957.13;;;24.65;32.92
67818;BME280;54614;47.576;7.524;2023-02-21T09:16:41;98949.66;;;24.67;32.74
67818;BME280;54614;47.576;7.524;2023-02-21T09:19:08;98950.50;;;24.67;32.79
67818;BME280;54614;47.576;7.524;2023-02-21T09:21:35;98954.44;;;24.71;33.00
67818;BME280;54614;47.576;7.524;2023-02-21T09:24:09;98948.03;;;24.72;32.86
67818;BME280;54614;47.576;7.524;2023-02-21T09:26:35;98945.97;;;24.74;32.92
67818;BME280;54614;47.576;7.524;2023-02-21T09:29:01;98949.06;;;24.78;32.93
67818;BME280;54614;47.576;7.524;2023-02-21T09:31:27;98951.34;;;24.81;33.05
67818;BME280;54614;47.576;7.524;2023-02-21T09:33:53;98941.00;;;24.85;33.11
67818;BME280;54614;47.576;7.524;2023-02-21T09:36:19;98944.31;;;24.87;33.23
67818;BME280;54614;47.576;7.524;2023-02-21T09:38:50;98933.97;;;24.90;33.27
67818;BME280;54614;47.576;7.524;2023-02-21T09:41:18;98935.63;;;24.91;32.93
67818;BME280;54614;47.576;7.524;2023-02-21T09:43:51;98927.78;;;24.90;33.00
67818;BME280;54614;47.576;7.524;2023-02-21T09:46:34;98926.94;;;24.89;33.08
67818;BME280;54614;47.576;7.524;2023-02-21T09:49:06;98921.97;;;24.93;33.28
67818;BME280;54614;47.576;7.524;2023-02-21T09:51:37;98920.56;;;24.97;33.16
67818;BME280;54614;47.576;7.524;2023-02-21T09:54:22;98911.88;;;25.01;32.97
67818;BME280;54614;47.576;7.524;2023-02-21T09:56:48;98915.41;;;25.02;33.30
67818;BME280;54614;47.576;7.524;2023-02-21T09:59:15;98905.66;;;25.08;33.08
67818;BME280;54614;47.576;7.524;2023-02-21T10:02:22;98910.63;;;25.11;33.17
67818;BME280;54614;47.576;7.524;2023-02-21T10:05:17;98905.88;;;25.13;33.31
67818;BME280;54614;47.576;7.524;2023-02-21T10:11:00;98894.06;;;25.14;33.31
67818;BME280;54614;47.576;7.524;2023-02-21T10:16:50;98894.28;;;25.19;32.92
67818;BME280;54614;47.576;7.524;2023-02-21T10:19:20;98895.50;;;25.23;33.33
67818;BME280;54614;47.576;7.524;2023-02-21T10:21:48;98885.34;;;25.25;33.22
67818;BME280;54614;47.576;7.524;2023-02-21T10:24:24;98891.16;;;25.28;33.17
67818;BME280;54614;47.576;7.524;2023-02-21T10:27:05;98884.53;;;25.31;32.94
67818;BME280;54614;47.576;7.524;2023-02-21T10:32:09;98875.81;;;25.35;33.23
67818;BME280;54614;47.576;7.524;2023-02-21T10:34:35;98882.84;;;25.36;33.36
67818;BME280;54614;47.576;7.524;2023-02-21T10:40:46;98865.66;;;25.44;32.85
67818;BME280;54614;47.576;7.524;2023-02-21T10:43:33;98862.13;;;25.44;33.11
67818;BME280;54614;47.576;7.524;2023-02-21T10:48:53;98856.53;;;25.45;33.16
67818;BME280;54614;47.576;7.524;2023-02-21T10:51:32;98854.47;;;25.47;33.12
67818;BME280;54614;47.576;7.524;2023-02-21T10:54:22;98847.81;;;25.50;33.30
67818;BME280;54614;47.576;7.524;2023-02-21T10:56:50;98854.66;;;25.46;33.17
67818;BME280;54614;47.576;7.524;2023-02-21T10:59:30;98843.69;;;25.47;33.38
67818;BME280;54614;47.576;7.524;2023-02-21T11:01:58;98835.59;;;25.47;33.26
67818;BME280;54614;47.576;7.524;2023-02-21T11:04:30;98834.94;;;25.58;32.94
67818;BME280;54614;47.576;7.524;2023-02-21T11:07:09;98823.31;;;25.64;32.89
67818;BME280;54614;47.576;7.524;2023-02-21T11:09:44;98826.22;;;25.63;32.72
67818;BME280;54614;47.576;7.524;2023-02-21T11:12:27;98819.63;;;25.59;33.41
67818;BME280;54614;47.576;7.524;2023-02-21T11:17:27;98806.16;;;25.59;33.43
67818;BME280;54614;47.576;7.524;2023-02-21T11:22:45;98791.84;;;25.65;33.17
67818;BME280;54614;47.576;7.524;2023-02-21T11:25:30;98786.25;;;25.66;33.57
67818;BME280;54614;47.576;7.524;2023-02-21T11:33:20;98765.88;;;25.84;32.95
67818;BME280;54614;47.576;7.524;2023-02-21T11:35:50;98766.47;;;25.86;32.92
67818;BME280;54614;47.576;7.524;2023-02-21T11:43:52;98749.22;;;25.93;32.95
67818;BME280;54614;47.576;7.524;2023-02-21T11:46:45;98740.31;;;25.93;32.96
67818;BME280;54614;47.576;7.524;2023-02-21T11:49:19;98739.06;;;25.95;33.14
67818;BME280;54614;47.576;7.524;2023-02-21T11:51:53;98732.63;;;25.96;33.28
67818;BME280;54614;47.576;7.524;2023-02-21T11:54:26;98729.91;;;26.03;33.09
67818;BME280;54614;47.576;7.524;2023-02-21T12:09:57;98692.13;;;26.10;32.81
67818;BME280;54614;47.576;7.524;2023-02-21T12:19:15;98678.59;;;26.16;32.90
67818;BME280;54614;47.576;7.524;2023-02-21T12:25:22;98661.38;;;26.17;32.96
67818;BME280;54614;47.576;7.524;2023-02-21T12:31:02;98648.72;;;26.18;32.56
67818;BME280;54614;47.576;7.524;2023-02-21T12:47:08;98618.28;;;26.11;33.22
67818;BME280;54614;47.576;7.524;2023-02-21T12:49:59;98616.41;;;26.11;33.41
67818;BME280;54614;47.576;7.524;2023-02-21T12:55:26;98608.19;;;26.06;33.33
67818;BME280;54614;47.576;7.524;2023-02-21T12:58:25;98608.56;;;26.10;32.95
67818;BME280;54614;47.576;7.524;2023-02-21T13:01:47;98600.03;;;26.13;32.91
67818;BME280;54614;47.576;7.524;2023-02-21T13:04:43;98594.84;;;26.11;32.59
67818;BME280;54614;47.576;7.524;2023-02-21T13:07:22;98589.25;;;26.13;32.46
67818;BME280;54614;47.576;7.524;2023-02-21T13:10:03;98585.28;;;26.15;32.65
67818;BME280;54614;47.576;7.524;2023-02-21T13:12:49;98578.84;;;26.16;32.54
67818;BME280;54614;47.576;7.524;2023-02-21T13:15:24;98581.31;;;26.18;32.32
67818;BME280;54614;47.576;7.524;2023-02-21T13:18:06;98573.44;;;26.16;32.17
67818;BME280;54614;47.576;7.524;2023-02-21T13:20:41;98575.09;;;26.17;32.64
67818;BME280;54614;47.576;7.524;2023-02-21T13:29:33;98564.53;;;26.16;32.30
67818;BME280;54614;47.576;7.524;2023-02-21T13:34:55;98553.75;;;26.16;32.22
67818;BME280;54614;47.576;7.524;2023-02-21T13:37:31;98550.69;;;26.12;32.25
67818;BME280;54614;47.576;7.524;2023-02-21T13:40:06;98553.38;;;26.12;32.25
67818;BME280;54614;47.576;7.524;2023-02-21T13:42:41;98539.91;;;26.12;32.33
67818;BME280;54614;47.576;7.524;2023-02-21T13:45:16;98542.81;;;26.11;32.43
67818;BME280;54614;47.576;7.524;2023-02-21T13:53:14;98523.78;;;26.06;32.18
67818;BME280;54614;47.576;7.524;2023-02-21T13:56:12;98516.53;;;26.06;32.24
67818;BME280;54614;47.576;7.524;2023-02-21T13:58:48;98511.34;;;26.05;32.30
67818;BME280;54614;47.576;7.524;2023-02-21T14:03:54;98511.13;;;26.06;32.18
67818;BME280;54614;47.576;7.524;2023-02-21T14:06:27;98505.97;;;26.05;31.89
67818;BME280;54614;47.576;7.524;2023-02-21T14:08:58;98500.34;;;26.06;32.01
67818;BME280;54614;47.576;7.524;2023-02-21T14:11:37;98497.06;;;26.04;32.05
67818;BME280;54614;47.576;7.524;2023-02-21T14:14:26;98488.16;;;26.04;32.01
67818;BME280;54614;47.576;7.524;2023-02-21T14:17:13;98486.72;;;26.01;31.97
67818;BME280;54614;47.576;7.524;2023-02-21T14:19:47;98488.78;;;25.99;31.95
67818;BME280;54614;47.576;7.524;2023-02-21T14:22:27;98480.91;;;25.97;32.20
67818;BME280;54614;47.576;7.524;2023-02-21T14:25:18;98479.28;;;25.96;32.11
67818;BME280;54614;47.576;7.524;2023-02-21T14:27:46;98476.44;;;25.91;32.10
67818;BME280;54614;47.576;7.524;2023-02-21T14:35:25;98466.69;;;25.90;32.14
67818;BME280;54614;47.576;7.524;2023-02-21T14:50:03;98451.03;;;25.81;32.20
67818;BME280;54614;47.576;7.524;2023-02-21T14:59:03;98442.34;;;25.79;32.42
67818;BME280;54614;47.576;7.524;2023-02-21T15:07:14;98430.31;;;25.81;31.90
67818;BME280;54614;47.576;7.524;2023-02-21T15:09:41;98436.75;;;25.80;31.87
67818;BME280;54614;47.576;7.524;2023-02-21T15:12:16;98433.91;;;25.75;32.34
67818;BME280;54614;47.576;7.524;2023-02-21T15:14:51;98436.59;;;25.75;32.49
67818;BME280;54614;47.576;7.524;2023-02-21T15:17:21;98436.59;;;25.75;32.72
67818;BME280;54614;47.576;7.524;2023-02-21T15:20:04;98431.19;;;25.75;32.81
67818;BME280;54614;47.576;7.524;2023-02-21T15:22:31;98432.47;;;25.73;32.93
67818;BME280;54614;47.576;7.524;2023-02-21T15:27:54;98433.50;;;25.72;33.00
67818;BME280;54614;47.576;7.524;2023-02-21T15:30:34;98432.69;;;25.71;33.01
67818;BME280;54614;47.576;7.524;2023-02-21T15:33:15;98431.03;;;25.70;33.10
67818;BME280;54614;47.576;7.524;2023-02-21T15:35:49;98430.88;;;25.65;33.27
67818;BME280;54614;47.576;7.524;2023-02-21T15:38:28;98422.81;;;25.65;33.09
67818;BME280;54614;47.576;7.524;2023-02-21T15:41:08;98422.97;;;25.70;32.89
67818;BME280;54614;47.576;7.524;2023-02-21T15:47:09;98420.13;;;25.65;33.08
67818;BME280;54614;47.576;7.524;2023-02-21T15:49:42;98416.56;;;25.64;33.12
67818;BME280;54614;47.576;7.524;2023-02-21T15:52:40;98410.34;;;25.64;33.42
67818;BME280;54614;47.576;7.524;2023-02-21T15:57:57;98408.47;;;25.64;33.28
67818;BME280;54614;47.576;7.524;2023-02-21T16:00:30;98410.56;;;25.62;33.54
67818;BME280;54614;47.576;7.524;2023-02-21T16:06:30;98410.56;;;25.62;33.28
67818;BME280;54614;47.576;7.524;2023-02-21T16:09:21;98406.69;;;25.58;33.36
67818;BME280;54614;47.576;7.524;2023-02-21T16:12:19;98405.84;;;25.58;33.43
67818;BME280;54614;47.576;7.524;2023-02-21T16:15:03;98400.91;;;25.55;33.28
67818;BME280;54614;47.576;7.524;2023-02-21T16:17:40;98402.56;;;25.56;33.28
67818;BME280;54614;47.576;7.524;2023-02-21T16:20:22;98392.63;;;25.56;33.43
67818;BME280;54614;47.576;7.524;2023-02-21T16:23:23;98398.81;;;25.57;33.49
67818;BME280;54614;47.576;7.524;2023-02-21T16:26:21;98397.19;;;25.56;33.54
67818;BME280;54614;47.576;7.524;2023-02-21T16:28:54;98390.13;;;25.55;33.30